Time;durP1;ratioP1;P1;durP2;ratioP2;P2;SDS_P1;SDS_P2;PMS_P1;PMS_P2;Temp;Humidity;BMP_temperature;BMP_pressure;BME280_temperature;BME280_humidity;BME280_pressure;Samples;Min_cycle;Max_cycle;Signal;HPM_P1;HPM_P2
2021/07/02 00:00:59;;;;;;;8.38;4.25;;;;;;;;;;4929983;28;20470;-81
2021/07/02 00:03:45;;;;;;;7.65;4.88;;;;;;;;;;4942496;28;20089;-80
2021/07/02 00:06:30;;;;;;;7.53;4.68;;;;;;;;;;4939549;28;20059;-80
2021/07/02 00:09:15;;;;;;;9.27;5.57;;;;;;;;;;4943572;28;20045;-79
2021/07/02 00:12:00;;;;;;;9.88;4.88;;;;;;;;;;4936936;28;20062;-79
2021/07/02 00:14:46;;;;;;;11.05;5.05;;;;;;;;;;4940700;29;20039;-78
2021/07/02 00:17:31;;;;;;;9.13;5.40;;;;;;;;;;4938782;28;20414;-79
2021/07/02 00:20:16;;;;;;;7.47;4.82;;;;;;;;;;4941491;28;20027;-79
2021/07/02 00:23:01;;;;;;;11.52;5.40;;;;;;;;;;4937659;28;20644;-77
2021/07/02 00:25:47;;;;;;;7.18;4.75;;;;;;;;;;4939247;28;20035;-79
2021/07/02 00:28:32;;;;;;;10.80;5.20;;;;;;;;;;4942996;28;20030;-80
2021/07/02 00:31:17;;;;;;;8.20;5.00;;;;;;;;;;4946236;28;20023;-79
2021/07/02 00:34:02;;;;;;;9.88;5.43;;;;;;;;;;4938035;28;20171;-77
2021/07/02 00:36:47;;;;;;;7.75;4.75;;;;;;;;;;4928253;28;20054;-79
2021/07/02 00:39:32;;;;;;;9.02;4.90;;;;;;;;;;4945590;28;20035;-79
2021/07/02 00:42:18;;;;;;;6.88;4.72;;;;;;;;;;4943532;28;20375;-79
2021/07/02 00:45:03;;;;;;;8.13;5.18;;;;;;;;;;4944574;28;20027;-79
2021/07/02 00:47:48;;;;;;;11.73;5.55;;;;;;;;;;4931891;28;20043;-80
2021/07/02 00:50:34;;;;;;;8.70;5.32;;;;;;;;;;4948693;28;20030;-78
2021/07/02 00:53:22;;;;;;;8.27;4.88;;;;;;;;;;4941470;28;20058;-80
2021/07/02 00:56:08;;;;;;;10.75;5.03;;;;;;;;;;4942667;29;20031;-78
2021/07/02 00:58:53;;;;;;;9.52;4.63;;;;;;;;;;4935040;28;20060;-79
2021/07/02 01:01:39;;;;;;;7.85;5.30;;;;;;;;;;4932517;28;20032;-80
2021/07/02 01:04:24;;;;;;;8.50;5.40;;;;;;;;;;4927636;28;20042;-78
2021/07/02 01:07:11;;;;;;;7.38;4.95;;;;;;;;;;4943034;28;20038;-79
2021/07/02 01:09:56;;;;;;;10.13;5.80;;;;;;;;;;4939819;28;20035;-79
2021/07/02 01:12:41;;;;;;;6.90;5.07;;;;;;;;;;4945593;28;20370;-80
2021/07/02 01:15:26;;;;;;;8.50;4.90;;;;;;;;;;4934184;28;20054;-78
2021/07/02 01:18:12;;;;;;;8.85;5.80;;;;;;;;;;4945941;28;20090;-79
2021/07/02 01:20:57;;;;;;;7.97;5.10;;;;;;;;;;4953779;28;20086;-80
2021/07/02 01:23:42;;;;;;;8.15;5.03;;;;;;;;;;4935377;28;20027;-77
2021/07/02 01:26:29;;;;;;;9.25;5.28;;;;;;;;;;4937748;28;20027;-78
2021/07/02 01:29:14;;;;;;;8.80;4.82;;;;;;;;;;4949187;28;20082;-79
2021/07/02 01:31:59;;;;;;;8.93;5.65;;;;;;;;;;4943509;28;20031;-78
2021/07/02 01:34:45;;;;;;;8.43;5.50;;;;;;;;;;4948603;28;20026;-78
2021/07/02 01:37:30;;;;;;;7.85;5.50;;;;;;;;;;4943413;28;20016;-78
2021/07/02 01:40:15;;;;;;;10.32;5.65;;;;;;;;;;4941855;28;20114;-79
2021/07/02 01:43:01;;;;;;;10.30;5.35;;;;;;;;;;4946714;28;20071;-79
2021/07/02 01:45:46;;;;;;;8.57;5.88;;;;;;;;;;4942530;28;20023;-79
2021/07/02 01:48:31;;;;;;;8.93;5.63;;;;;;;;;;4942988;28;20020;-78
2021/07/02 01:51:17;;;;;;;11.20;6.03;;;;;;;;;;4939025;28;20035;-77
2021/07/02 01:54:02;;;;;;;8.70;5.68;;;;;;;;;;4942312;28;20027;-77
2021/07/02 01:56:48;;;;;;;10.52;5.22;;;;;;;;;;4931647;28;20035;-79
2021/07/02 01:59:33;;;;;;;9.65;6.00;;;;;;;;;;4923909;28;20126;-79
2021/07/02 02:02:18;;;;;;;9.68;5.45;;;;;;;;;;4941486;28;20019;-79
2021/07/02 02:05:04;;;;;;;8.45;5.38;;;;;;;;;;4933832;28;20027;-80
2021/07/02 02:07:49;;;;;;;8.85;5.53;;;;;;;;;;4933967;28;20023;-80
2021/07/02 02:10:34;;;;;;;10.00;5.18;;;;;;;;;;4942418;28;20027;-80
2021/07/02 02:13:19;;;;;;;6.95;4.82;;;;;;;;;;4934427;28;20525;-80
2021/07/02 02:16:05;;;;;;;8.73;5.10;;;;;;;;;;4928320;28;20119;-80
2021/07/02 02:18:50;;;;;;;10.20;5.55;;;;;;;;;;4940098;28;20474;-80
2021/07/02 02:21:36;;;;;;;7.38;5.18;;;;;;;;;;4933412;28;20390;-80
2021/07/02 02:24:21;;;;;;;10.32;6.35;;;;;;;;;;4938207;28;20069;-80
2021/07/02 02:27:06;;;;;;;11.45;5.85;;;;;;;;;;4934318;28;20066;-81
2021/07/02 02:29:51;;;;;;;9.98;5.45;;;;;;;;;;4945496;28;20731;-81
2021/07/02 02:32:38;;;;;;;8.55;5.53;;;;;;;;;;4938804;28;20049;-81
2021/07/02 02:35:23;;;;;;;10.57;5.82;;;;;;;;;;4938159;29;20038;-82
2021/07/02 02:38:08;;;;;;;8.02;5.18;;;;;;;;;;4936055;28;20030;-81
2021/07/02 02:40:53;;;;;;;7.70;5.63;;;;;;;;;;4946348;28;20118;-80
2021/07/02 02:43:39;;;;;;;9.23;5.13;;;;;;;;;;4936134;28;20027;-80
2021/07/02 02:46:24;;;;;;;9.75;5.82;;;;;;;;;;4935302;28;20050;-80
2021/07/02 02:49:10;;;;;;;9.63;6.03;;;;;;;;;;4942291;28;20050;-80
2021/07/02 02:51:55;;;;;;;8.57;5.55;;;;;;;;;;4940059;28;21426;-80
2021/07/02 02:54:40;;;;;;;8.55;5.47;;;;;;;;;;4938404;28;21610;-80
2021/07/02 02:57:25;;;;;;;9.40;5.82;;;;;;;;;;4936184;28;20178;-80
2021/07/02 03:00:12;;;;;;;10.82;6.25;;;;;;;;;;4934214;28;20023;-80
2021/07/02 03:02:57;;;;;;;9.60;5.60;;;;;;;;;;4936259;28;20048;-80
2021/07/02 03:05:42;;;;;;;11.35;6.07;;;;;;;;;;4939695;28;20024;-80
2021/07/02 03:08:28;;;;;;;8.32;4.97;;;;;;;;;;4929267;28;20027;-80
2021/07/02 03:11:15;;;;;;;7.28;5.22;;;;;;;;;;4946781;28;20590;-80
2021/07/02 03:14:00;;;;;;;10.93;6.40;;;;;;;;;;4934489;29;20042;-80
2021/07/02 03:16:46;;;;;;;11.55;5.68;;;;;;;;;;4935775;28;20031;-80
2021/07/02 03:19:31;;;;;;;8.70;5.68;;;;;;;;;;4937549;28;21058;-81
2021/07/02 03:22:16;;;;;;;9.30;5.72;;;;;;;;;;4939740;28;20100;-80
2021/07/02 03:25:02;;;;;;;7.50;5.32;;;;;;;;;;4931373;28;20050;-81
2021/07/02 03:27:47;;;;;;;11.60;5.50;;;;;;;;;;4936153;28;20027;-81
2021/07/02 03:30:32;;;;;;;8.93;5.13;;;;;;;;;;4929893;28;20102;-82
2021/07/02 03:33:18;;;;;;;11.25;5.97;;;;;;;;;;4936826;28;20497;-80
2021/07/02 03:36:04;;;;;;;8.13;5.72;;;;;;;;;;4931357;28;20035;-80
2021/07/02 03:38:50;;;;;;;9.63;5.38;;;;;;;;;;4941037;28;20371;-81
2021/07/02 03:41:35;;;;;;;12.23;5.88;;;;;;;;;;4944227;28;20114;-83
2021/07/02 03:44:20;;;;;;;8.70;5.40;;;;;;;;;;4940746;28;20023;-80
2021/07/02 03:47:05;;;;;;;8.82;5.75;;;;;;;;;;4943760;28;20034;-79
2021/07/02 03:49:51;;;;;;;9.30;5.93;;;;;;;;;;4933776;28;20049;-80
2021/07/02 03:52:36;;;;;;;10.43;5.75;;;;;;;;;;4935668;28;20038;-79
2021/07/02 03:55:21;;;;;;;8.85;5.75;;;;;;;;;;4936210;28;20264;-80
2021/07/02 03:58:06;;;;;;;10.90;6.47;;;;;;;;;;4940187;28;20113;-80
2021/07/02 04:00:51;;;;;;;9.98;6.53;;;;;;;;;;4942401;28;20023;-82
2021/07/02 04:03:37;;;;;;;7.60;5.03;;;;;;;;;;4938575;28;20537;-81
2021/07/02 04:06:22;;;;;;;8.02;5.15;;;;;;;;;;4934605;28;20031;-80
2021/07/02 04:09:07;;;;;;;10.75;5.97;;;;;;;;;;4939583;28;20027;-79
2021/07/02 04:11:52;;;;;;;8.80;6.00;;;;;;;;;;4941269;29;20023;-80
2021/07/02 04:14:38;;;;;;;10.27;5.97;;;;;;;;;;4943415;28;20043;-80
2021/07/02 04:17:23;;;;;;;11.68;6.18;;;;;;;;;;4941328;28;20438;-80
2021/07/02 04:20:09;;;;;;;13.30;5.72;;;;;;;;;;4940564;28;20022;-80
2021/07/02 04:22:55;;;;;;;8.05;5.70;;;;;;;;;;4938126;29;20580;-80
2021/07/02 04:25:40;;;;;;;9.73;6.28;;;;;;;;;;4939810;28;20394;-79
2021/07/02 04:28:25;;;;;;;11.60;6.45;;;;;;;;;;4942603;28;20388;-80
2021/07/02 04:31:10;;;;;;;8.57;6.18;;;;;;;;;;4937536;28;20050;-80
2021/07/02 04:33:55;;;;;;;9.98;5.90;;;;;;;;;;4941637;28;20038;-80
2021/07/02 04:36:41;;;;;;;8.68;6.10;;;;;;;;;;4934280;28;20031;-80
2021/07/02 04:39:26;;;;;;;10.15;5.65;;;;;;;;;;4941278;28;20055;-79
2021/07/02 04:42:11;;;;;;;9.35;5.68;;;;;;;;;;4934645;28;20090;-79
2021/07/02 04:44:56;;;;;;;9.43;6.30;;;;;;;;;;4943111;28;20069;-79
2021/07/02 04:47:42;;;;;;;8.55;5.75;;;;;;;;;;4940891;28;20035;-78
2021/07/02 04:50:27;;;;;;;10.20;6.20;;;;;;;;;;4937599;28;20023;-81
2021/07/02 04:53:12;;;;;;;12.30;6.57;;;;;;;;;;4939154;28;20023;-86
2021/07/02 04:55:57;;;;;;;14.00;6.25;;;;;;;;;;4946504;28;20553;-80
2021/07/02 04:58:43;;;;;;;8.55;5.88;;;;;;;;;;4930243;28;20450;-87
2021/07/02 05:01:29;;;;;;;11.18;5.68;;;;;;;;;;4943489;28;20046;-92
2021/07/02 05:04:15;;;;;;;9.82;5.97;;;;;;;;;;4944960;29;20034;-88
2021/07/02 05:07:01;;;;;;;8.38;5.47;;;;;;;;;;4942879;28;20650;-86
2021/07/02 05:09:46;;;;;;;11.68;6.03;;;;;;;;;;4935871;29;20039;-84
2021/07/02 05:12:32;;;;;;;10.18;6.10;;;;;;;;;;4937672;28;20039;-85
2021/07/02 05:15:17;;;;;;;8.32;6.10;;;;;;;;;;4937463;28;20490;-86
2021/07/02 05:18:03;;;;;;;11.93;5.65;;;;;;;;;;4933466;28;20738;-84
2021/07/02 05:20:48;;;;;;;9.40;5.50;;;;;;;;;;4940229;28;20110;-85
2021/07/02 05:23:33;;;;;;;9.65;5.78;;;;;;;;;;4932248;28;20073;-86
2021/07/02 05:26:18;;;;;;;10.77;5.70;;;;;;;;;;4928545;28;20394;-85
2021/07/02 05:29:04;;;;;;;12.10;6.43;;;;;;;;;;4936422;28;20031;-89
2021/07/02 05:31:49;;;;;;;9.15;5.45;;;;;;;;;;4938812;28;20378;-87
2021/07/02 05:34:34;;;;;;;11.20;6.35;;;;;;;;;;4931219;28;20038;-87
2021/07/02 05:37:20;;;;;;;8.93;5.80;;;;;;;;;;4937675;28;20214;-86
2021/07/02 05:40:05;;;;;;;9.88;6.03;;;;;;;;;;4934704;28;20054;-86
2021/07/02 05:42:51;;;;;;;8.75;5.65;;;;;;;;;;4946341;28;20031;-87
2021/07/02 05:45:36;;;;;;;11.90;6.20;;;;;;;;;;4944759;28;20037;-87
2021/07/02 05:48:23;;;;;;;9.18;5.72;;;;;;;;;;4944180;29;20034;-87
2021/07/02 05:51:08;;;;;;;9.25;5.63;;;;;;;;;;4931436;28;20166;-86
2021/07/02 05:53:54;;;;;;;12.23;6.38;;;;;;;;;;4934545;28;20034;-86
2021/07/02 05:56:39;;;;;;;8.80;6.55;;;;;;;;;;4922218;28;20042;-82
2021/07/02 05:59:24;;;;;;;9.40;5.70;;;;;;;;;;4936496;28;20035;-81
2021/07/02 06:02:09;;;;;;;10.77;6.15;;;;;;;;;;4938694;28;20551;-83
2021/07/02 06:04:54;;;;;;;12.90;5.95;;;;;;;;;;4937675;28;20042;-88
2021/07/02 06:07:46;;;;;;;8.23;5.60;;;;;;;;;;4946873;29;20394;-88
2021/07/02 06:10:31;;;;;;;9.65;5.93;;;;;;;;;;4938935;28;20027;-86
2021/07/02 06:13:16;;;;;;;7.05;5.53;;;;;;;;;;4935880;28;20031;-86
2021/07/02 06:16:02;;;;;;;8.02;5.47;;;;;;;;;;4930475;28;20051;-86
2021/07/02 06:18:47;;;;;;;7.63;5.55;;;;;;;;;;4940925;28;20031;-86
2021/07/02 06:21:32;;;;;;;9.27;6.10;;;;;;;;;;4934884;28;20031;-86
2021/07/02 06:24:17;;;;;;;9.65;5.20;;;;;;;;;;4943538;28;20254;-87
2021/07/02 06:27:03;;;;;;;10.40;5.70;;;;;;;;;;4935817;28;20038;-86
2021/07/02 06:29:49;;;;;;;8.18;5.60;;;;;;;;;;4934876;29;20063;-89
2021/07/02 06:32:34;;;;;;;7.75;5.50;;;;;;;;;;4941579;28;20479;-87
2021/07/02 06:35:19;;;;;;;9.45;5.55;;;;;;;;;;4939611;28;20035;-87
2021/07/02 06:38:05;;;;;;;9.55;5.50;;;;;;;;;;4922755;28;20367;-88
2021/07/02 06:41:07;;;;;;;6.65;4.78;;;;;;;;;;4941461;28;20046;-91
2021/07/02 06:43:53;;;;;;;8.55;5.65;;;;;;;;;;4939218;29;20031;-87
2021/07/02 06:46:38;;;;;;;8.18;6.05;;;;;;;;;;4937732;28;20059;-87
2021/07/02 06:49:24;;;;;;;9.05;5.65;;;;;;;;;;4938301;29;20055;-85
2021/07/02 06:52:10;;;;;;;7.63;5.78;;;;;;;;;;4941275;28;20007;-88
2021/07/02 06:54:56;;;;;;;9.45;5.32;;;;;;;;;;4952346;28;20846;-86
2021/07/02 06:57:44;;;;;;;9.15;5.72;;;;;;;;;;4936682;29;20031;-88
2021/07/02 07:00:32;;;;;;;10.18;5.85;;;;;;;;;;4937577;28;20023;-88
2021/07/02 07:03:20;;;;;;;7.70;5.22;;;;;;;;;;4937560;28;20118;-87
2021/07/02 07:06:07;;;;;;;6.95;5.15;;;;;;;;;;4936434;28;20024;-87
2021/07/02 07:08:53;;;;;;;9.57;5.75;;;;;;;;;;4937333;28;20308;-85
2021/07/02 07:11:39;;;;;;;7.43;4.90;;;;;;;;;;4939429;28;20018;-87
2021/07/02 07:14:25;;;;;;;6.25;4.80;;;;;;;;;;4941982;28;20118;-87
2021/07/02 07:17:12;;;;;;;6.90;5.05;;;;;;;;;;4945429;28;20548;-88
2021/07/02 07:19:58;;;;;;;8.52;5.65;;;;;;;;;;4938952;28;20027;-87
2021/07/02 07:22:43;;;;;;;7.75;5.75;;;;;;;;;;4932823;28;20051;-88
2021/07/02 07:25:29;;;;;;;8.52;5.47;;;;;;;;;;4942232;28;20034;-90
2021/07/02 07:28:14;;;;;;;7.47;5.68;;;;;;;;;;4935837;28;20099;-87
2021/07/02 07:30:59;;;;;;;8.18;5.60;;;;;;;;;;4937946;28;20102;-87
2021/07/02 07:33:47;;;;;;;6.28;4.72;;;;;;;;;;4933961;28;20058;-85
2021/07/02 07:36:35;;;;;;;7.78;4.93;;;;;;;;;;4943611;28;20026;-87
2021/07/02 07:39:21;;;;;;;6.57;4.95;;;;;;;;;;4936688;28;20047;-86
2021/07/02 07:42:07;;;;;;;6.72;5.10;;;;;;;;;;4944935;28;20030;-86
2021/07/02 07:44:52;;;;;;;7.00;5.20;;;;;;;;;;4927915;29;20035;-86
2021/07/02 07:47:38;;;;;;;6.50;4.65;;;;;;;;;;4943123;28;20059;-85
2021/07/02 07:50:25;;;;;;;8.73;5.65;;;;;;;;;;4937417;28;20031;-86
2021/07/02 07:53:11;;;;;;;7.18;4.72;;;;;;;;;;4925662;28;20389;-85
2021/07/02 07:55:56;;;;;;;8.57;5.53;;;;;;;;;;4933552;28;20130;-85
2021/07/02 07:58:42;;;;;;;8.70;4.72;;;;;;;;;;4938281;28;20550;-86
2021/07/02 08:01:27;;;;;;;9.10;4.88;;;;;;;;;;4938065;28;20050;-85
2021/07/02 08:04:15;;;;;;;6.93;4.80;;;;;;;;;;4934783;28;20030;-87
2021/07/02 08:07:02;;;;;;;7.80;5.43;;;;;;;;;;4940782;28;20030;-88
2021/07/02 08:10:05;;;;;;;8.02;5.05;;;;;;;;;;4942530;28;20019;-90
2021/07/02 08:12:53;;;;;;;8.32;5.05;;;;;;;;;;4942856;28;20023;-89
2021/07/02 08:15:38;;;;;;;6.00;4.80;;;;;;;;;;4937285;28;20209;-86
2021/07/02 08:18:24;;;;;;;7.60;4.97;;;;;;;;;;4942622;28;20027;-87
2021/07/02 08:21:09;;;;;;;7.00;4.53;;;;;;;;;;4944452;28;20114;-86
2021/07/02 08:23:54;;;;;;;7.95;4.80;;;;;;;;;;4945989;28;20027;-85
2021/07/02 08:26:41;;;;;;;9.63;4.43;;;;;;;;;;4945514;28;20024;-85
2021/07/02 08:29:30;;;;;;;6.85;5.35;;;;;;;;;;4933829;28;20030;-84
2021/07/02 08:32:15;;;;;;;7.78;4.88;;;;;;;;;;4940519;28;21509;-86
2021/07/02 08:35:01;;;;;;;7.50;4.63;;;;;;;;;;4941906;28;20087;-88
2021/07/02 08:37:48;;;;;;;6.22;4.30;;;;;;;;;;4943956;28;20023;-87
2021/07/02 08:40:34;;;;;;;6.47;4.75;;;;;;;;;;4943632;28;20015;-87
2021/07/02 08:43:20;;;;;;;8.57;5.07;;;;;;;;;;4938605;28;20406;-89
2021/07/02 08:46:11;;;;;;;7.53;5.32;;;;;;;;;;4922529;28;20031;-88
2021/07/02 08:48:58;;;;;;;8.32;5.50;;;;;;;;;;4923636;29;20482;-89
2021/07/02 08:51:44;;;;;;;8.32;4.95;;;;;;;;;;4940436;28;20106;-87
2021/07/02 08:54:29;;;;;;;6.95;4.85;;;;;;;;;;4938341;29;20031;-86
2021/07/02 08:57:15;;;;;;;6.65;4.80;;;;;;;;;;4942547;29;20098;-88
2021/07/02 09:00:01;;;;;;;7.80;4.70;;;;;;;;;;4927186;28;20093;-84
2021/07/02 09:02:46;;;;;;;6.90;5.10;;;;;;;;;;4941580;29;20031;-87
2021/07/02 09:05:37;;;;;;;9.23;4.88;;;;;;;;;;4937034;28;20027;-87
2021/07/02 09:08:24;;;;;;;7.40;4.32;;;;;;;;;;4925871;28;20031;-88
2021/07/02 09:11:32;;;;;;;5.43;4.10;;;;;;;;;;4944756;28;20027;-88
2021/07/02 09:14:26;;;;;;;6.72;4.50;;;;;;;;;;4940098;29;20051;-90
2021/07/02 09:17:12;;;;;;;8.23;4.50;;;;;;;;;;4941080;28;20057;-90
2021/07/02 09:20:12;;;;;;;6.07;4.45;;;;;;;;;;4944723;28;20054;-92
2021/07/02 09:23:01;;;;;;;5.35;4.00;;;;;;;;;;4943065;28;20031;-89
2021/07/02 09:25:54;;;;;;;8.05;5.03;;;;;;;;;;4932941;28;20059;-93
2021/07/02 09:28:42;;;;;;;7.35;3.70;;;;;;;;;;4909483;29;20131;-90
2021/07/02 09:31:35;;;;;;;6.95;4.65;;;;;;;;;;4937779;29;20027;-85
2021/07/02 09:34:20;;;;;;;6.18;4.45;;;;;;;;;;4931754;28;20149;-88
2021/07/02 09:37:24;;;;;;;7.45;5.07;;;;;;;;;;4936190;28;20106;-86
2021/07/02 09:40:14;;;;;;;8.25;4.88;;;;;;;;;;4940370;28;20035;-85
2021/07/02 09:43:08;;;;;;;6.63;4.47;;;;;;;;;;4937699;28;20050;-85
2021/07/02 09:45:54;;;;;;;6.55;4.35;;;;;;;;;;4935506;28;20034;-85
2021/07/02 09:48:47;;;;;;;7.45;5.15;;;;;;;;;;4921913;28;20055;-84
2021/07/02 09:51:33;;;;;;;6.68;4.68;;;;;;;;;;4940485;28;20038;-85
2021/07/02 09:54:18;;;;;;;7.22;4.88;;;;;;;;;;4916084;28;20038;-84
2021/07/02 09:57:30;;;;;;;5.70;4.60;;;;;;;;;;4936143;29;20106;-85
2021/07/02 10:00:16;;;;;;;9.32;4.63;;;;;;;;;;4937572;28;20470;-86
2021/07/02 10:03:02;;;;;;;7.38;4.65;;;;;;;;;;4942407;29;20035;-86
2021/07/02 10:05:49;;;;;;;8.15;5.10;;;;;;;;;;4938309;28;20037;-82
2021/07/02 10:08:35;;;;;;;6.43;4.68;;;;;;;;;;4935668;28;20105;-80
2021/07/02 10:11:21;;;;;;;8.95;4.88;;;;;;;;;;4934772;28;20478;-81
2021/07/02 10:14:06;;;;;;;10.60;5.07;;;;;;;;;;4949198;28;20051;-80
2021/07/02 10:16:51;;;;;;;10.50;5.07;;;;;;;;;;4929597;28;20027;-81
2021/07/02 10:19:41;;;;;;;11.18;5.00;;;;;;;;;;4935496;28;20043;-80
2021/07/02 10:22:27;;;;;;;6.65;4.90;;;;;;;;;;4936049;28;20038;-81
2021/07/02 10:25:15;;;;;;;6.97;4.20;;;;;;;;;;4930332;28;20394;-82
2021/07/02 10:28:00;;;;;;;6.68;4.40;;;;;;;;;;4932921;28;20019;-85
2021/07/02 10:30:48;;;;;;;6.22;4.68;;;;;;;;;;4922039;28;20363;-83
2021/07/02 10:33:35;;;;;;;6.53;4.73;;;;;;;;;;4932531;28;20039;-84
2021/07/02 10:36:21;;;;;;;6.55;4.63;;;;;;;;;;4935427;28;20122;-82
2021/07/02 10:39:26;;;;;;;7.43;4.38;;;;;;;;;;4926513;28;20074;-81
2021/07/02 10:42:13;;;;;;;5.70;4.78;;;;;;;;;;4931488;28;20030;-82
2021/07/02 10:44:59;;;;;;;7.25;4.82;;;;;;;;;;4937992;28;20612;-82
2021/07/02 10:47:49;;;;;;;5.60;4.35;;;;;;;;;;4930595;28;20501;-83
2021/07/02 10:50:36;;;;;;;9.23;4.70;;;;;;;;;;4935679;28;20648;-84
2021/07/02 10:53:21;;;;;;;7.38;4.65;;;;;;;;;;4943447;28;20063;-86
2021/07/02 10:56:25;;;;;;;5.68;4.50;;;;;;;;;;4956696;28;20027;-89
2021/07/02 10:59:13;;;;;;;9.88;4.90;;;;;;;;;;4960526;28;20126;-88
2021/07/02 11:02:14;;;;;;;5.53;4.30;;;;;;;;;;4963201;28;20011;-88
2021/07/02 11:05:04;;;;;;;7.25;4.20;;;;;;;;;;4942161;28;20023;-91
2021/07/02 11:07:53;;;;;;;6.78;4.70;;;;;;;;;;4936897;28;20043;-87
2021/07/02 11:10:55;;;;;;;6.60;4.53;;;;;;;;;;4943520;29;20031;-84
2021/07/02 11:14:05;;;;;;;6.32;4.60;;;;;;;;;;4956008;28;20031;-86
2021/07/02 11:17:09;;;;;;;7.05;4.80;;;;;;;;;;4960670;28;20038;-87
2021/07/02 11:20:06;;;;;;;6.32;4.35;;;;;;;;;;4960896;28;20084;-87
2021/07/02 11:22:56;;;;;;;5.97;4.70;;;;;;;;;;4961030;28;20026;-86
2021/07/02 11:28:42;;;;;;;6.47;4.20;;;;;;;;;;4964867;28;20054;-86
2021/07/02 11:31:35;;;;;;;8.45;5.35;;;;;;;;;;4955225;28;20082;-86
2021/07/02 11:34:20;;;;;;;7.43;4.70;;;;;;;;;;4957548;28;20019;-88
2021/07/02 11:37:09;;;;;;;7.07;4.70;;;;;;;;;;4956863;28;20209;-84
2021/07/02 11:39:56;;;;;;;7.15;5.43;;;;;;;;;;4960140;28;20031;-84
2021/07/02 11:42:49;;;;;;;5.53;4.50;;;;;;;;;;4964655;28;20095;-88
2021/07/02 11:45:37;;;;;;;5.82;4.50;;;;;;;;;;4961140;28;20039;-83
2021/07/02 11:48:23;;;;;;;9.03;4.70;;;;;;;;;;4955465;28;20059;-86
2021/07/02 11:51:13;;;;;;;7.40;5.03;;;;;;;;;;4959658;28;20026;-86
2021/07/02 11:54:05;;;;;;;10.05;6.55;;;;;;;;;;4954464;28;20020;-87
2021/07/02 11:56:50;;;;;;;7.22;5.30;;;;;;;;;;4955361;28;20015;-86
2021/07/02 11:59:36;;;;;;;6.80;4.85;;;;;;;;;;4959600;28;20027;-83
2021/07/02 12:02:21;;;;;;;7.07;5.15;;;;;;;;;;4957205;28;20126;-86
2021/07/02 12:05:08;;;;;;;7.95;5.38;;;;;;;;;;4941958;28;20035;-85
2021/07/02 12:07:53;;;;;;;7.18;4.82;;;;;;;;;;4956987;28;20019;-83
2021/07/02 12:10:38;;;;;;;7.45;4.55;;;;;;;;;;4959736;28;20026;-85
2021/07/02 12:13:24;;;;;;;9.23;5.25;;;;;;;;;;4963428;28;20038;-84
2021/07/02 12:16:11;;;;;;;9.00;4.80;;;;;;;;;;4945618;28;20042;-84
2021/07/02 12:18:56;;;;;;;7.38;4.70;;;;;;;;;;4963833;29;20023;-83
2021/07/02 12:21:54;;;;;;;10.00;5.03;;;;;;;;;;4964996;28;20026;-85
2021/07/02 12:24:44;;;;;;;7.90;4.95;;;;;;;;;;4965169;28;20057;-87
2021/07/02 12:27:29;;;;;;;7.32;5.18;;;;;;;;;;4964456;28;20041;-85
2021/07/02 12:30:14;;;;;;;6.40;4.72;;;;;;;;;;4965299;28;20031;-85
2021/07/02 12:33:00;;;;;;;8.90;4.75;;;;;;;;;;4966001;28;20031;-83
2021/07/02 12:35:45;;;;;;;13.00;5.20;;;;;;;;;;4958646;29;20173;-83
2021/07/02 12:38:31;;;;;;;8.98;4.88;;;;;;;;;;4954859;29;20074;-86
2021/07/02 12:41:16;;;;;;;7.20;5.28;;;;;;;;;;4940491;28;20228;-85
2021/07/02 12:44:01;;;;;;;7.47;5.32;;;;;;;;;;4927668;28;20643;-85
2021/07/02 12:46:47;;;;;;;8.85;5.30;;;;;;;;;;4940669;28;20086;-84
2021/07/02 12:49:33;;;;;;;13.38;5.72;;;;;;;;;;4936463;28;20027;-85
2021/07/02 12:55:14;;;;;;;7.35;5.10;;;;;;;;;;4937826;28;20034;-83
2021/07/02 12:57:59;;;;;;;9.63;5.38;;;;;;;;;;4943403;29;20389;-88
2021/07/02 13:00:45;;;;;;;9.77;5.75;;;;;;;;;;4945619;29;20020;-84
2021/07/02 13:03:30;;;;;;;6.68;4.80;;;;;;;;;;4941059;29;20078;-84
2021/07/02 13:06:16;;;;;;;5.78;4.30;;;;;;;;;;4947279;28;20505;-85
2021/07/02 13:09:01;;;;;;;7.30;4.60;;;;;;;;;;4944208;28;20490;-85
2021/07/02 13:11:46;;;;;;;7.35;4.78;;;;;;;;;;4938720;28;20090;-86
2021/07/02 13:14:31;;;;;;;6.93;4.72;;;;;;;;;;4940765;29;20446;-87
2021/07/02 13:17:17;;;;;;;6.90;4.63;;;;;;;;;;4934439;28;20031;-85
2021/07/02 13:20:02;;;;;;;6.80;4.40;;;;;;;;;;4944754;29;20051;-87
2021/07/02 13:23:03;;;;;;;6.75;4.82;;;;;;;;;;4948057;28;20101;-87
2021/07/02 13:26:04;;;;;;;8.30;4.93;;;;;;;;;;4943166;28;20082;-87
2021/07/02 13:28:50;;;;;;;7.60;4.82;;;;;;;;;;4942580;28;20027;-86
2021/07/02 13:31:36;;;;;;;7.82;4.55;;;;;;;;;;4943184;29;20026;-86
2021/07/02 13:34:22;;;;;;;8.13;4.95;;;;;;;;;;4953252;28;20023;-87
2021/07/02 13:37:08;;;;;;;7.40;5.03;;;;;;;;;;4945372;28;20034;-89
2021/07/02 13:39:53;;;;;;;6.95;4.50;;;;;;;;;;4939066;29;20024;-88
2021/07/02 13:42:39;;;;;;;9.10;4.30;;;;;;;;;;4938229;28;20027;-89
2021/07/02 13:45:24;;;;;;;6.68;4.95;;;;;;;;;;4946206;28;20046;-87
2021/07/02 13:48:11;;;;;;;6.65;4.90;;;;;;;;;;4938741;28;20028;-87
2021/07/02 13:50:56;;;;;;;7.07;5.22;;;;;;;;;;4929661;29;20390;-87
2021/07/02 13:53:42;;;;;;;6.10;4.57;;;;;;;;;;4937162;29;20424;-87
2021/07/02 13:56:27;;;;;;;7.32;4.72;;;;;;;;;;4941135;28;20446;-85
2021/07/02 13:59:12;;;;;;;6.68;4.93;;;;;;;;;;4942610;28;20031;-84
2021/07/02 14:01:59;;;;;;;8.40;4.90;;;;;;;;;;4937429;28;20031;-85
2021/07/02 14:04:44;;;;;;;6.13;4.70;;;;;;;;;;4940912;28;20035;-87
2021/07/02 14:07:29;;;;;;;6.82;4.97;;;;;;;;;;4960262;28;20006;-89
2021/07/02 14:10:14;;;;;;;8.45;5.15;;;;;;;;;;4941227;29;20019;-90
2021/07/02 14:13:00;;;;;;;7.55;5.18;;;;;;;;;;4946459;29;20054;-86
2021/07/02 14:15:45;;;;;;;9.00;5.57;;;;;;;;;;4937795;29;20050;-90
2021/07/02 14:18:33;;;;;;;8.52;5.47;;;;;;;;;;4942083;29;20026;-88
2021/07/02 14:21:19;;;;;;;6.45;4.97;;;;;;;;;;4934048;29;20486;-91
2021/07/02 14:24:34;;;;;;;7.65;5.47;;;;;;;;;;4940613;28;20449;-92
2021/07/02 14:30:55;;;;;;;7.28;5.13;;;;;;;;;;4943989;28;20109;-91
2021/07/02 14:55:09;;;;;;;8.18;5.00;;;;;;;;;;4730630;30;20032;-89
2021/07/02 14:57:59;;;;;;;7.43;5.22;;;;;;;;;;4740617;30;20558;-85
2021/07/02 15:00:48;;;;;;;6.90;5.15;;;;;;;;;;4865767;28;20023;-86
2021/07/02 15:03:33;;;;;;;7.43;4.90;;;;;;;;;;4935628;29;20038;-88
2021/07/02 15:06:18;;;;;;;7.22;5.45;;;;;;;;;;4935703;28;20894;-88
2021/07/02 15:09:04;;;;;;;8.15;5.35;;;;;;;;;;4943986;29;20050;-88
2021/07/02 15:11:49;;;;;;;7.70;5.03;;;;;;;;;;4940101;28;20329;-89
2021/07/02 15:14:34;;;;;;;9.40;5.30;;;;;;;;;;4941402;29;20250;-89
2021/07/02 15:17:20;;;;;;;7.00;4.97;;;;;;;;;;4920198;29;20027;-88
2021/07/02 15:20:06;;;;;;;7.72;5.20;;;;;;;;;;4942808;28;20031;-89
2021/07/02 15:22:53;;;;;;;13.90;5.85;;;;;;;;;;4938846;29;20023;-88
2021/07/02 15:25:39;;;;;;;8.65;5.88;;;;;;;;;;4937123;28;20457;-87
2021/07/02 15:28:24;;;;;;;6.82;5.60;;;;;;;;;;4945475;29;20019;-85
2021/07/02 15:31:28;;;;;;;10.65;5.90;;;;;;;;;;4937400;29;20102;-87
2021/07/02 15:34:14;;;;;;;8.27;5.18;;;;;;;;;;4939105;29;20070;-87
2021/07/02 15:37:02;;;;;;;8.98;5.75;;;;;;;;;;4949759;28;20027;-89
2021/07/02 15:39:48;;;;;;;7.13;4.93;;;;;;;;;;4948547;28;20043;-87
2021/07/02 15:42:33;;;;;;;8.10;5.63;;;;;;;;;;4939733;28;20031;-88
2021/07/02 15:45:19;;;;;;;6.65;5.15;;;;;;;;;;4937683;29;20063;-86
2021/07/02 15:48:04;;;;;;;6.97;5.10;;;;;;;;;;4937279;28;20027;-86
2021/07/02 15:50:49;;;;;;;7.65;5.53;;;;;;;;;;4952164;28;20069;-85
2021/07/02 15:53:35;;;;;;;8.13;5.30;;;;;;;;;;4945664;28;20077;-86
2021/07/02 15:56:20;;;;;;;7.53;5.20;;;;;;;;;;4944800;28;20031;-87
2021/07/02 15:59:23;;;;;;;7.07;5.15;;;;;;;;;;4940288;29;20019;-85
2021/07/02 16:02:11;;;;;;;8.20;4.95;;;;;;;;;;4943929;28;20035;-84
2021/07/02 16:04:57;;;;;;;8.98;5.70;;;;;;;;;;4941984;29;20062;-87
2021/07/02 16:07:42;;;;;;;8.60;5.30;;;;;;;;;;4933693;28;20038;-86
2021/07/02 16:10:30;;;;;;;7.10;5.13;;;;;;;;;;4941144;29;20045;-89
2021/07/02 16:13:15;;;;;;;6.40;5.30;;;;;;;;;;4942968;28;20034;-88
2021/07/02 16:16:00;;;;;;;7.82;4.97;;;;;;;;;;4942101;28;20047;-88
2021/07/02 16:18:46;;;;;;;7.88;4.97;;;;;;;;;;4937778;28;20320;-91
2021/07/02 16:21:32;;;;;;;7.95;5.32;;;;;;;;;;4951273;28;20180;-88
2021/07/02 16:24:17;;;;;;;8.20;5.38;;;;;;;;;;4941737;28;20041;-89
2021/07/02 16:27:02;;;;;;;6.03;5.00;;;;;;;;;;4938321;28;20043;-84
2021/07/02 16:29:47;;;;;;;8.88;5.25;;;;;;;;;;4941377;28;20544;-86
2021/07/02 16:32:33;;;;;;;8.55;5.25;;;;;;;;;;4936966;29;20035;-87
2021/07/02 16:35:19;;;;;;;8.02;5.28;;;;;;;;;;4937697;29;20027;-86
2021/07/02 16:38:04;;;;;;;9.40;6.95;;;;;;;;;;4941404;28;20087;-83
2021/07/02 16:40:49;;;;;;;11.40;5.85;;;;;;;;;;4944994;28;20094;-85
2021/07/02 16:43:34;;;;;;;8.05;5.30;;;;;;;;;;4940107;28;20034;-84
2021/07/02 16:46:20;;;;;;;8.10;5.40;;;;;;;;;;4938379;28;20031;-88
2021/07/02 16:49:05;;;;;;;10.77;5.65;;;;;;;;;;4937737;28;20020;-87
2021/07/02 16:51:50;;;;;;;8.02;5.35;;;;;;;;;;4937021;28;20035;-89
2021/07/02 16:54:35;;;;;;;10.57;5.65;;;;;;;;;;4940868;28;20031;-88
2021/07/02 16:57:21;;;;;;;8.85;5.78;;;;;;;;;;4944325;28;20099;-87
2021/07/02 17:00:08;;;;;;;7.63;5.63;;;;;;;;;;4941482;28;20430;-86
2021/07/02 17:02:53;;;;;;;10.45;5.50;;;;;;;;;;4943633;28;20477;-87
2021/07/02 17:05:38;;;;;;;6.75;4.88;;;;;;;;;;4930102;28;20030;-86
2021/07/02 17:08:23;;;;;;;7.07;5.03;;;;;;;;;;4943575;28;20038;-87